KBCB

Details ICAO KBCB
Name Virginia Tech Montgomery Executive
Region United States
Timezone America/New_York (UTC-4.0)
Plans Departing 11
Arriving 20
Stats Elevation 2,132 ft / 650 m (AMSL)
Location 37.207636° -80.407799°
Runways 1
Magnetic Variation 8.407° W
Sunrise 2018-05-21 10:10:04 UTC / 2018-05-21 06:10:04 Local
Sunset 2018-05-22 00:29:15 UTC / 2018-05-21 20:29:15 Local
Advertisement - Login to hide

Runways

ID Width Length Bearing (true) Bearing (mag) Surface Threshold Offset Overrun Length
12 98 ft / 30 m 4,543 ft / 1,385 m 117.28° 125.69° Asphalt 161 ft / 49 m 0 ft / 0 m
30 98 ft / 30 m 4,543 ft / 1,385 m 297.29° 305.70° Asphalt 187 ft / 57 m 141 ft / 43 m

Map

Weather


0- 5 10 15 20 25 30 35+ Temperature / ° C

Clouds and Precipitation
Forecast for 2018-05-21 12:00 UTC. Updated 35 minutes ago

Ground ~20,000 ft ~40,000 ft Winds

METAR

KBCB 210935Z AUTO 00000KT 4SM BR CLR 17/17 A3022 RMK AO2 T01680168

TAF

KBCB 210525Z 2106/2206 00000KT P6SM SCT250 FM210800 00000KT 5SM BR SCT200 TEMPO 2108/2112 2SM BR FM211200 VRB03KT P6SM BKN120 FM212200 VRB01KT 6SM SHRA VCTS BKN035CB FM220200 00000KT P6SM OVC100

Frequencies

Recorded 133.32 MHz AWOS 3
Clearance 124.85 MHz ROANOKE CLNC DEL
Unicom 123.05 MHz CTAF/UNICOM
Approach 126.90 MHz ROANOKE APP/DEP
Warning: Do not use this data for real-world aviation or navigation. No guarantee of current accuracy is given.